createdAt,value
2022-11-09T00:01:30.139Z,69.63
2022-11-09T00:04:00.129Z,69.58
2022-11-09T00:06:29.906Z,69.71
2022-11-09T00:09:05.759Z,69.76
2022-11-09T00:11:37.673Z,69.93
2022-11-09T00:14:06.449Z,69.96
2022-11-09T00:16:35.539Z,70.15
2022-11-09T00:19:04.275Z,70.09
2022-11-09T00:21:32.995Z,69.95
2022-11-09T00:24:02.719Z,69.94
2022-11-09T00:26:31.383Z,69.96
2022-11-09T00:29:00.958Z,70.08
2022-11-09T00:31:29.560Z,69.84
2022-11-09T00:33:58.480Z,69.50
2022-11-09T00:36:29.114Z,69.05
2022-11-09T00:38:58.893Z,69.27
2022-11-09T00:41:29.913Z,69.13
2022-11-09T00:43:58.272Z,69.15
2022-11-09T00:46:27.638Z,68.88
2022-11-09T00:48:56.872Z,68.66
2022-11-09T00:51:26.456Z,68.95
2022-11-09T00:53:57.352Z,69.39
2022-11-09T00:56:26.509Z,69.45
2022-11-09T00:58:56.720Z,69.10
2022-11-09T01:01:25.892Z,68.85
2022-11-09T01:03:54.711Z,68.80
2022-11-09T01:06:26.664Z,69.04
2022-11-09T01:08:55.252Z,68.92
2022-11-09T01:11:24.771Z,69.24
2022-11-09T01:14:00.464Z,69.25
2022-11-09T01:16:30.665Z,69.22
2022-11-09T01:19:00.114Z,69.16
2022-11-09T01:21:29.463Z,69.39
2022-11-09T01:24:01.725Z,69.53
2022-11-09T01:26:31.000Z,69.64
2022-11-09T01:29:00.837Z,69.84
2022-11-09T01:31:29.523Z,69.93
2022-11-09T01:33:58.448Z,70.11
2022-11-09T01:36:26.879Z,69.99
2022-11-09T01:38:55.775Z,69.83
2022-11-09T01:41:29.529Z,69.72
2022-11-09T01:44:08.860Z,69.44
2022-11-09T01:46:47.434Z,69.50
2022-11-09T01:49:22.182Z,69.33
2022-11-09T01:51:54.900Z,69.18
2022-11-09T01:54:27.889Z,69.53
2022-11-09T01:57:01.085Z,69.60
2022-11-09T01:59:35.061Z,69.78
2022-11-09T02:02:05.531Z,70.26
2022-11-09T02:04:39.643Z,70.61
2022-11-09T02:07:11.911Z,70.75
2022-11-09T02:09:46.561Z,70.79
2022-11-09T02:12:17.178Z,70.99
2022-11-09T02:14:50.370Z,71.06
2022-11-09T02:17:20.368Z,71.04
2022-11-09T02:19:48.836Z,71.11
2022-11-09T02:22:19.795Z,71.35
2022-11-09T02:24:50.842Z,71.47
2022-11-09T02:27:23.264Z,71.37
2022-11-09T02:29:52.314Z,71.41
2022-11-09T02:32:24.564Z,71.40
2022-11-09T02:34:55.125Z,71.37
2022-11-09T02:37:30.116Z,71.46
2022-11-09T02:40:01.730Z,71.44
2022-11-09T02:42:30.413Z,71.32
2022-11-09T02:45:01.367Z,71.45
2022-11-09T02:47:29.801Z,71.50
2022-11-09T02:50:00.376Z,71.64
2022-11-09T02:52:30.213Z,71.76
2022-11-09T02:54:59.569Z,71.78
2022-11-09T02:57:28.475Z,71.50
2022-11-09T02:59:58.198Z,71.31
2022-11-09T03:02:26.830Z,71.27
2022-11-09T03:04:56.158Z,71.21
2022-11-09T03:07:25.143Z,71.22
2022-11-09T03:09:55.122Z,71.24
2022-11-09T03:12:32.486Z,71.16
2022-11-09T03:15:09.085Z,71.11
2022-11-09T03:17:42.326Z,71.05
2022-11-09T03:20:12.200Z,71.03
2022-11-09T03:22:42.113Z,71.02
2022-11-09T03:25:12.307Z,71.04
2022-11-09T03:27:42.158Z,71.03
2022-11-09T03:30:11.614Z,71.22
2022-11-09T03:32:42.636Z,71.06
2022-11-09T03:35:13.132Z,71.12
2022-11-09T03:37:42.442Z,71.43
2022-11-09T03:40:13.967Z,71.36
2022-11-09T03:42:46.011Z,71.48
2022-11-09T03:45:15.190Z,71.39
2022-11-09T03:47:44.174Z,71.55
2022-11-09T03:50:14.602Z,71.47
2022-11-09T03:52:45.548Z,71.59
2022-11-09T03:55:16.481Z,71.79
2022-11-09T03:57:46.053Z,71.84
2022-11-09T04:00:18.310Z,71.83
2022-11-09T04:02:46.902Z,71.69
2022-11-09T04:05:16.792Z,71.71
2022-11-09T04:07:49.403Z,72.04
2022-11-09T04:10:21.226Z,72.02
2022-11-09T04:12:49.962Z,72.04
2022-11-09T04:15:18.980Z,72.13
2022-11-09T04:17:56.266Z,72.32
2022-11-09T04:20:24.714Z,72.04
2022-11-09T04:22:57.028Z,72.08
2022-11-09T04:25:27.268Z,72.00
2022-11-09T04:27:57.212Z,71.95
2022-11-09T04:30:28.005Z,71.92
2022-11-09T04:32:57.479Z,72.13
2022-11-09T04:35:27.135Z,72.18
2022-11-09T04:37:56.496Z,72.06
2022-11-09T04:40:27.645Z,71.99
2022-11-09T04:42:57.179Z,72.12
2022-11-09T04:45:25.536Z,72.34
2022-11-09T04:47:59.127Z,72.25
2022-11-09T04:50:31.525Z,72.12
2022-11-09T04:53:19.400Z,72.28
2022-11-09T04:55:50.104Z,72.42
2022-11-09T04:58:23.801Z,72.47
2022-11-09T05:00:54.774Z,72.45
2022-11-09T05:03:23.447Z,72.45
2022-11-09T05:05:52.683Z,72.33
2022-11-09T05:08:21.078Z,72.46
2022-11-09T05:10:51.664Z,72.45
2022-11-09T05:13:20.225Z,72.47
2022-11-09T05:15:49.077Z,72.37
2022-11-09T05:18:17.483Z,72.18
2022-11-09T05:20:46.583Z,72.33
2022-11-09T05:23:33.203Z,72.27
2022-11-09T05:26:03.274Z,72.30
2022-11-09T05:28:32.592Z,72.50
2022-11-09T05:31:01.008Z,72.42
2022-11-09T05:33:30.046Z,72.31
2022-11-09T05:35:59.253Z,72.29
2022-11-09T05:38:28.620Z,72.49
2022-11-09T05:40:57.052Z,72.56
2022-11-09T05:43:27.639Z,72.83
2022-11-09T05:45:56.375Z,72.98
2022-11-09T05:48:25.314Z,73.09
2022-11-09T05:50:54.523Z,73.19
2022-11-09T05:53:26.226Z,73.40
2022-11-09T05:55:55.052Z,73.64
2022-11-09T05:58:23.803Z,73.63
2022-11-09T06:00:53.599Z,73.60
2022-11-09T06:03:22.358Z,73.36
2022-11-09T06:05:51.087Z,72.88
2022-11-09T06:08:19.961Z,72.61
2022-11-09T06:10:48.882Z,72.64
2022-11-09T06:13:17.580Z,72.57
2022-11-09T06:15:56.244Z,72.67
2022-11-09T06:18:25.488Z,72.69
2022-11-09T06:20:54.367Z,72.67
2022-11-09T06:23:26.182Z,72.83
2022-11-09T06:25:54.897Z,72.68
2022-11-09T06:28:23.910Z,72.60
2022-11-09T06:30:52.331Z,72.47
2022-11-09T06:33:23.089Z,72.38
2022-11-09T06:35:56.170Z,72.38
2022-11-09T06:38:27.126Z,72.34
2022-11-09T06:40:57.269Z,72.45
2022-11-09T06:43:26.343Z,72.15
2022-11-09T06:45:55.593Z,71.65
2022-11-09T06:48:25.553Z,71.60
2022-11-09T06:50:54.467Z,71.63
2022-11-09T06:53:23.865Z,71.72
2022-11-09T06:55:53.209Z,71.76
2022-11-09T06:58:22.505Z,71.76
2022-11-09T07:00:51.084Z,71.80
2022-11-09T07:03:21.747Z,71.52
2022-11-09T07:05:53.283Z,71.55
2022-11-09T07:08:22.495Z,71.00
2022-11-09T07:10:50.935Z,71.38
2022-11-09T07:13:19.713Z,71.42
2022-11-09T07:15:54.196Z,71.51
2022-11-09T07:18:23.073Z,71.50
2022-11-09T07:20:53.133Z,71.63
2022-11-09T07:23:22.636Z,71.62
2022-11-09T07:25:51.275Z,71.59
2022-11-09T07:28:20.327Z,71.56
2022-11-09T07:30:51.808Z,71.86
2022-11-09T07:33:23.320Z,71.89
2022-11-09T07:35:54.616Z,72.01
2022-11-09T07:38:23.016Z,73.76
2022-11-09T07:40:52.375Z,75.29
2022-11-09T07:43:21.527Z,73.96
2022-11-09T07:45:53.242Z,73.28
2022-11-09T07:48:21.832Z,73.00
2022-11-09T07:50:50.774Z,73.06
2022-11-09T07:53:21.449Z,73.17
2022-11-09T07:55:58.265Z,73.26
2022-11-09T07:58:26.994Z,73.30
2022-11-09T08:00:55.759Z,73.46
2022-11-09T08:03:25.773Z,73.36
2022-11-09T08:05:54.635Z,73.22
2022-11-09T08:08:24.413Z,73.33
2022-11-09T08:10:54.008Z,73.34
2022-11-09T08:13:22.829Z,73.15
2022-11-09T08:15:52.280Z,73.14
2022-11-09T08:18:23.644Z,72.90
2022-11-09T08:20:52.301Z,72.84
2022-11-09T08:23:22.417Z,72.54
2022-11-09T08:25:52.978Z,72.17
2022-11-09T08:28:22.473Z,71.88
2022-11-09T08:30:57.911Z,71.56
2022-11-09T08:33:28.007Z,70.92
2022-11-09T08:35:56.935Z,71.01
2022-11-09T08:38:25.566Z,70.60
2022-11-09T08:41:00.014Z,70.73
2022-11-09T08:43:28.955Z,70.33
2022-11-09T08:45:57.329Z,70.31
2022-11-09T08:48:26.518Z,69.93
2022-11-09T08:50:56.372Z,69.59
2022-11-09T08:53:26.527Z,69.22
2022-11-09T08:55:56.111Z,68.56
2022-11-09T08:58:26.267Z,68.13
2022-11-09T09:00:55.110Z,68.17
2022-11-09T09:03:23.583Z,67.53
2022-11-09T09:05:52.859Z,67.16
2022-11-09T09:08:23.256Z,66.80
2022-11-09T09:10:53.258Z,66.74
2022-11-09T09:13:23.117Z,66.60
2022-11-09T09:15:52.817Z,65.97
2022-11-09T09:18:22.764Z,66.01
2022-11-09T09:20:52.041Z,65.65
2022-11-09T09:23:20.403Z,65.61
2022-11-09T09:25:49.789Z,65.51
2022-11-09T09:28:18.952Z,65.51
2022-11-09T09:30:47.449Z,65.73
2022-11-09T09:33:19.058Z,65.92
2022-11-09T09:35:47.432Z,65.89
2022-11-09T09:38:16.554Z,65.90
2022-11-09T09:40:59.500Z,65.89
2022-11-09T09:43:34.553Z,66.26
2022-11-09T09:46:08.865Z,65.99
2022-11-09T09:48:42.732Z,66.13
2022-11-09T09:51:17.886Z,66.01
2022-11-09T09:53:51.359Z,66.11
2022-11-09T09:56:22.899Z,66.15
2022-11-09T09:59:00.430Z,66.41
2022-11-09T10:01:36.571Z,66.41
2022-11-09T10:04:16.922Z,66.18
2022-11-09T10:07:00.498Z,66.72
2022-11-09T10:09:46.133Z,66.20
2022-11-09T10:12:24.450Z,65.56
2022-11-09T10:15:13.948Z,64.70
2022-11-09T10:17:53.510Z,64.17
2022-11-09T10:20:39.912Z,63.50
2022-11-09T10:23:28.925Z,62.58
2022-11-09T10:26:06.881Z,61.93
2022-11-09T10:29:09.684Z,61.28
2022-11-09T10:31:34.990Z,60.15
2022-11-09T10:34:14.263Z,59.68
2022-11-09T10:36:48.559Z,58.91
2022-11-09T10:39:18.886Z,58.01
2022-11-09T10:42:05.823Z,57.31
2022-11-09T10:44:53.710Z,56.56
2022-11-09T10:47:49.720Z,56.55
2022-11-09T10:50:40.150Z,56.74
2022-11-09T10:53:29.604Z,56.90
2022-11-09T10:56:21.829Z,56.50
2022-11-09T10:59:45.146Z,56.29
2022-11-09T11:02:45.648Z,56.31
2022-11-09T11:05:35.917Z,56.41
2022-11-09T11:08:26.541Z,56.70
2022-11-09T11:11:36.438Z,56.67
2022-11-09T11:14:30.966Z,56.39
2022-11-09T11:17:26.516Z,55.81
2022-11-09T11:20:29.036Z,55.26
2022-11-09T11:23:19.240Z,54.66
2022-11-09T11:26:33.318Z,54.18
2022-11-09T11:29:37.429Z,53.42
2022-11-09T11:32:25.069Z,52.89
2022-11-09T11:35:17.196Z,52.21
2022-11-09T11:38:21.296Z,51.95
2022-11-09T11:41:32.749Z,51.58
2022-11-09T11:44:43.241Z,51.67
2022-11-09T11:47:38.389Z,51.48
2022-11-09T11:50:36.864Z,51.05
2022-11-09T11:53:43.561Z,50.72
2022-11-09T11:56:37.291Z,50.27
2022-11-09T11:59:54.422Z,50.16
2022-11-09T12:03:03.493Z,50.08
2022-11-09T12:06:04.124Z,49.89
2022-11-09T12:09:09.087Z,50.18
2022-11-09T12:12:08.569Z,50.40
2022-11-09T12:15:15.338Z,50.89
2022-11-09T12:18:14.961Z,51.49
2022-11-09T12:21:14.075Z,51.58
2022-11-09T12:24:16.486Z,51.77
2022-11-09T12:27:32.469Z,52.06
2022-11-09T12:30:24.577Z,52.22
2022-11-09T12:33:16.793Z,52.46
2022-11-09T12:36:13.382Z,52.88
2022-11-09T12:39:05.069Z,52.95
2022-11-09T12:41:57.318Z,53.32
2022-11-09T12:44:49.310Z,53.70
2022-11-09T12:47:42.952Z,54.02
2022-11-09T12:50:30.564Z,54.46
2022-11-09T12:53:19.569Z,54.18
2022-11-09T12:56:11.201Z,53.84
2022-11-09T12:59:23.675Z,53.36
2022-11-09T13:02:23.635Z,52.90
2022-11-09T13:05:30.442Z,52.43
2022-11-09T13:08:21.629Z,52.08
2022-11-09T13:11:12.395Z,51.73
2022-11-09T13:14:33.332Z,51.64
2022-11-09T13:18:04.504Z,51.15
2022-11-09T13:20:58.475Z,51.49
2022-11-09T13:24:03.879Z,51.60
2022-11-09T13:27:00.097Z,52.23
2022-11-09T13:29:56.047Z,52.36
2022-11-09T13:33:25.095Z,52.67
2022-11-09T13:36:20.795Z,53.18
2022-11-09T13:39:39.642Z,53.30
2022-11-09T13:42:32.171Z,53.51
2022-11-09T13:45:34.305Z,53.65
2022-11-09T13:48:40.674Z,53.65
2022-11-09T13:51:45.036Z,53.89
2022-11-09T13:54:33.641Z,54.23
2022-11-09T13:57:23.932Z,54.56
2022-11-09T14:00:18.868Z,54.62
2022-11-09T14:03:19.158Z,54.93
2022-11-09T14:06:07.810Z,55.20
2022-11-09T14:08:55.629Z,55.26
2022-11-09T14:12:09.828Z,55.22
2022-11-09T14:15:14.998Z,55.51
2022-11-09T14:18:16.103Z,55.73
2022-11-09T14:21:25.906Z,55.76
2022-11-09T14:24:19.879Z,55.79
2022-11-09T14:27:15.608Z,56.18
2022-11-09T14:30:03.146Z,56.29
2022-11-09T14:32:54.427Z,56.33
2022-11-09T14:35:41.275Z,56.39
2022-11-09T14:38:32.971Z,56.35
2022-11-09T14:41:22.948Z,56.71
2022-11-09T14:44:17.863Z,56.82
2022-11-09T14:47:06.614Z,57.10
2022-11-09T14:49:54.566Z,57.40
2022-11-09T14:52:41.821Z,57.72
2022-11-09T14:55:42.397Z,57.68
2022-11-09T14:58:31.286Z,57.96
2022-11-09T15:01:24.521Z,58.02
2022-11-09T15:04:16.866Z,58.23
2022-11-09T15:07:06.061Z,58.16
2022-11-09T15:09:57.074Z,58.78
2022-11-09T15:12:50.649Z,58.73
2022-11-09T15:15:39.248Z,58.98
2022-11-09T15:18:33.847Z,59.26
2022-11-09T15:21:35.042Z,59.30
2022-11-09T15:24:23.238Z,59.51
2022-11-09T15:27:30.631Z,59.66
2022-11-09T15:30:35.174Z,60.01
2022-11-09T15:33:29.272Z,60.28
2022-11-09T15:36:35.135Z,60.43
2022-11-09T15:39:23.795Z,60.62
2022-11-09T15:42:12.757Z,60.54
2022-11-09T15:45:00.805Z,60.87
2022-11-09T15:47:54.336Z,61.19
2022-11-09T15:50:41.594Z,61.23
2022-11-09T15:53:29.425Z,61.90
2022-11-09T15:56:19.148Z,62.15
2022-11-09T15:59:07.860Z,62.32
2022-11-09T16:01:55.034Z,62.28
2022-11-09T16:04:43.801Z,62.31
2022-11-09T16:07:30.967Z,62.65
2022-11-09T16:10:20.261Z,62.84
2022-11-09T16:13:08.114Z,62.77
2022-11-09T16:16:02.945Z,62.84
2022-11-09T16:18:50.062Z,62.61
2022-11-09T16:21:38.707Z,62.59
2022-11-09T16:24:25.922Z,62.94
2022-11-09T16:27:35.362Z,62.81
2022-11-09T16:30:21.805Z,63.02
2022-11-09T16:33:09.574Z,62.81
2022-11-09T16:36:00.010Z,63.05
2022-11-09T16:38:50.452Z,63.04
2022-11-09T16:41:40.875Z,63.11
2022-11-09T16:44:32.806Z,63.09
2022-11-09T16:47:22.256Z,63.03
2022-11-09T16:50:09.674Z,63.11
2022-11-09T16:52:56.374Z,63.49
2022-11-09T16:55:44.946Z,63.36
2022-11-09T16:58:32.031Z,63.55
2022-11-09T17:01:23.182Z,63.75
2022-11-09T17:04:10.987Z,63.77
2022-11-09T17:06:58.452Z,63.91
2022-11-09T17:09:45.668Z,63.71
2022-11-09T17:12:34.303Z,63.66
2022-11-09T17:15:21.597Z,63.71
2022-11-09T17:18:09.970Z,63.84
2022-11-09T17:20:56.919Z,63.72
2022-11-09T17:23:44.279Z,64.00
2022-11-09T17:26:32.655Z,64.30
2022-11-09T17:29:21.102Z,64.30
2022-11-09T17:32:10.658Z,64.36
2022-11-09T17:34:57.955Z,64.20
2022-11-09T17:37:44.700Z,64.27
2022-11-09T17:40:31.960Z,64.43
2022-11-09T17:43:19.067Z,64.42
2022-11-09T17:46:10.439Z,64.58
2022-11-09T17:48:56.985Z,64.50
2022-11-09T17:51:44.127Z,64.52
2022-11-09T17:54:36.789Z,64.69
2022-11-09T17:57:24.834Z,64.64
2022-11-09T18:00:13.119Z,64.45
2022-11-09T18:03:01.722Z,64.26
2022-11-09T18:05:48.683Z,64.91
2022-11-09T18:08:36.355Z,64.81
2022-11-09T18:11:23.286Z,64.90
2022-11-09T18:14:11.557Z,64.86
2022-11-09T18:17:01.203Z,65.31
2022-11-09T18:19:49.631Z,65.23
2022-11-09T18:22:36.646Z,65.30
2022-11-09T18:25:23.758Z,65.25
2022-11-09T18:28:13.498Z,65.36
2022-11-09T18:31:01.688Z,65.41
2022-11-09T18:33:49.093Z,65.67
2022-11-09T18:36:37.644Z,65.87
2022-11-09T18:39:26.334Z,65.69
2022-11-09T18:42:13.552Z,66.09
2022-11-09T18:45:00.648Z,66.23
2022-11-09T18:47:49.595Z,66.12
2022-11-09T18:50:39.021Z,66.24
2022-11-09T18:53:29.072Z,66.40
2022-11-09T18:56:19.472Z,66.24
2022-11-09T18:59:06.491Z,66.56
2022-11-09T19:01:53.575Z,66.79
2022-11-09T19:04:41.153Z,66.79
2022-11-09T19:07:28.838Z,67.21
2022-11-09T19:10:17.332Z,67.18
2022-11-09T19:13:04.868Z,67.20
2022-11-09T19:15:57.138Z,67.46
2022-11-09T19:18:45.138Z,67.68
2022-11-09T19:21:38.105Z,67.44
2022-11-09T19:24:26.932Z,67.65
2022-11-09T19:27:15.079Z,67.93
2022-11-09T19:30:07.964Z,68.10
2022-11-09T19:32:56.611Z,68.58
2022-11-09T19:35:43.302Z,68.37
2022-11-09T19:38:30.438Z,68.97
2022-11-09T19:41:17.345Z,69.00
2022-11-09T19:44:07.158Z,69.13
2022-11-09T19:46:53.982Z,69.70
2022-11-09T19:49:41.094Z,69.84
2022-11-09T19:52:28.336Z,70.10
2022-11-09T19:55:15.065Z,70.21
2022-11-09T19:58:02.142Z,70.43
2022-11-09T20:00:50.514Z,70.88
2022-11-09T20:03:38.035Z,71.13
2022-11-09T20:06:26.586Z,71.60
2022-11-09T20:09:13.791Z,71.81
2022-11-09T20:12:18.083Z,71.59
2022-11-09T20:15:06.079Z,72.06
2022-11-09T20:17:54.514Z,71.96
2022-11-09T20:20:42.103Z,72.40
2022-11-09T20:23:29.670Z,72.29
2022-11-09T20:26:16.914Z,72.72
2022-11-09T20:29:05.116Z,73.57
2022-11-09T20:31:52.114Z,73.55
2022-11-09T20:34:40.679Z,74.03
2022-11-09T20:37:28.301Z,74.22
2022-11-09T20:40:15.297Z,74.69
2022-11-09T20:43:02.517Z,74.98
2022-11-09T20:45:49.487Z,74.94
2022-11-09T20:48:54.896Z,75.01
2022-11-09T20:51:44.743Z,75.22
2022-11-09T20:54:32.038Z,75.27
2022-11-09T20:57:19.568Z,75.43
2022-11-09T21:00:08.241Z,75.63
2022-11-09T21:02:55.405Z,75.43
2022-11-09T21:05:46.653Z,75.53
2022-11-09T21:08:38.696Z,75.68
2022-11-09T21:11:28.771Z,76.04
2022-11-09T21:14:15.982Z,76.33
2022-11-09T21:17:03.182Z,76.24
2022-11-09T21:19:50.477Z,76.71
2022-11-09T21:22:57.051Z,76.75
2022-11-09T21:26:03.032Z,76.71
2022-11-09T21:29:08.130Z,77.08
2022-11-09T21:31:55.330Z,77.20
2022-11-09T21:34:43.339Z,77.36
2022-11-09T21:37:30.875Z,77.13
2022-11-09T21:40:18.375Z,77.31
2022-11-09T21:43:06.865Z,77.62
2022-11-09T21:45:54.787Z,77.51
2022-11-09T21:48:41.719Z,77.40
2022-11-09T21:51:29.466Z,77.63
2022-11-09T21:54:16.846Z,77.63
2022-11-09T21:57:03.962Z,77.56
2022-11-09T21:59:52.873Z,77.89
2022-11-09T22:02:39.868Z,77.93
2022-11-09T22:05:26.846Z,78.00
2022-11-09T22:08:14.523Z,78.22
2022-11-09T22:11:06.059Z,78.05
2022-11-09T22:14:10.963Z,78.01
2022-11-09T22:17:00.153Z,78.07
2022-11-09T22:20:04.467Z,78.30
2022-11-09T22:22:52.135Z,78.51
2022-11-09T22:25:42.699Z,78.53
2022-11-09T22:28:33.590Z,78.34
2022-11-09T22:31:20.352Z,78.81
2022-11-09T22:34:09.163Z,78.38
2022-11-09T22:36:56.110Z,78.62
2022-11-09T22:39:47.265Z,78.55
2022-11-09T22:42:35.073Z,78.72
2022-11-09T22:45:22.362Z,78.43
2022-11-09T22:48:09.491Z,78.53
2022-11-09T22:50:58.626Z,78.72
2022-11-09T22:53:49.273Z,78.68
2022-11-09T22:56:37.471Z,78.59
2022-11-09T22:59:24.938Z,78.73
2022-11-09T23:02:11.908Z,78.75
2022-11-09T23:04:58.916Z,78.89
2022-11-09T23:07:47.194Z,79.09
2022-11-09T23:10:34.873Z,78.82
2022-11-09T23:13:22.640Z,79.12
2022-11-09T23:16:12.250Z,79.09
2022-11-09T23:18:59.170Z,79.23
2022-11-09T23:21:46.279Z,79.19
2022-11-09T23:24:52.643Z,79.15
2022-11-09T23:27:39.866Z,79.22
2022-11-09T23:30:27.884Z,79.30
2022-11-09T23:33:15.286Z,79.17
2022-11-09T23:36:04.574Z,79.34
2022-11-09T23:38:51.574Z,79.27
2022-11-09T23:41:40.226Z,79.32
2022-11-09T23:44:27.582Z,79.31
2022-11-09T23:47:14.674Z,79.20
2022-11-09T23:50:02.636Z,78.89
2022-11-09T23:52:49.857Z,79.26
2022-11-09T23:55:36.853Z,79.35
2022-11-09T23:58:26.272Z,79.29
